Time;durP1;ratioP1;P1;durP2;ratioP2;P2;SDS_P1;SDS_P2;PMS_P1;PMS_P2;Temp;Humidity;BMP_temperature;BMP_pressure;BME280_temperature;BME280_humidity;BME280_pressure;Samples;Min_cycle;Max_cycle;Signal;HPM_P1;HPM_P2
2021/03/06 00:03:05;;;;;;;14.00;6.05;;;-3.70;84.20;;;;;;4881084;29;20529;-89
2021/03/06 00:08:53;;;;;;;14.10;6.00;;;-3.70;84.40;;;;;;4881297;29;20096;-89
2021/03/06 00:14:41;;;;;;;13.55;5.47;;;-3.80;84.40;;;;;;4881236;29;20043;-89
2021/03/06 00:20:29;;;;;;;15.75;6.03;;;-3.80;84.50;;;;;;4880859;29;20076;-87
2021/03/06 00:26:18;;;;;;;13.63;5.45;;;-3.90;84.40;;;;;;4880239;29;20063;-86
2021/03/06 00:32:06;;;;;;;15.65;5.68;;;-3.90;84.30;;;;;;4884210;29;20036;-90
2021/03/06 00:41:56;;;;;;;12.75;5.82;;;-4.00;84.50;;;;;;4881810;29;20180;-91
2021/03/06 00:47:44;;;;;;;12.43;5.88;;;-4.00;84.60;;;;;;4880396;29;20549;-89
2021/03/06 00:53:37;;;;;;;14.77;5.57;;;-4.10;84.40;;;;;;4880296;29;20463;-89
2021/03/06 00:59:25;;;;;;;11.18;4.95;;;-4.10;84.40;;;;;;4880231;29;20037;-89
2021/03/06 01:05:14;;;;;;;15.70;5.47;;;-4.20;84.30;;;;;;4879617;29;20116;-88
2021/03/06 01:11:04;;;;;;;9.02;4.63;;;-4.20;84.40;;;;;;4880221;29;20549;-88
2021/03/06 01:16:52;;;;;;;10.90;4.43;;;-4.30;84.40;;;;;;4880147;29;20032;-87
2021/03/06 01:22:41;;;;;;;12.13;5.05;;;-4.30;84.40;;;;;;4883824;29;20104;-88
2021/03/06 01:28:29;;;;;;;11.57;5.38;;;-4.40;84.20;;;;;;4884638;29;20036;-88
2021/03/06 01:34:18;;;;;;;13.30;4.95;;;-4.40;84.30;;;;;;4884462;29;20083;-89
2021/03/06 01:44:02;;;;;;;14.32;5.70;;;-4.50;84.30;;;;;;4883595;29;20470;-89
2021/03/06 01:49:50;;;;;;;12.60;5.80;;;-4.60;84.40;;;;;;4883340;29;20035;-88
2021/03/06 01:55:43;;;;;;;12.73;4.60;;;-4.60;84.30;;;;;;4883921;29;20044;-89
2021/03/06 02:01:32;;;;;;;12.38;5.40;;;-4.70;84.10;;;;;;4883426;29;20035;-88
2021/03/06 02:07:21;;;;;;;11.82;5.57;;;-4.70;84.30;;;;;;4883081;29;20136;-89
2021/03/06 02:13:43;;;;;;;12.85;5.18;;;-4.70;84.20;;;;;;4882810;29;20055;-88
2021/03/06 02:19:59;;;;;;;12.10;4.80;;;-4.70;84.30;;;;;;4883142;29;20032;-90
2021/03/06 02:25:47;;;;;;;10.40;4.50;;;-4.80;84.20;;;;;;4882663;29;20044;-89
2021/03/06 02:28:34;;;;;;;11.15;4.93;;;-4.80;84.20;;;;;;4881334;29;20029;-89
2021/03/06 02:34:30;;;;;;;7.30;3.50;;;-4.80;84.40;;;;;;4882438;29;20047;-89
2021/03/06 02:43:41;;;;;;;10.98;4.60;;;-4.90;84.20;;;;;;4882403;29;20501;-88
2021/03/06 02:49:29;;;;;;;12.05;4.55;;;-5.00;84.10;;;;;;4882320;29;20036;-88
2021/03/06 02:55:17;;;;;;;10.10;4.75;;;-5.00;84.20;;;;;;4882153;29;20048;-89
2021/03/06 03:01:34;;;;;;;9.40;4.32;;;-5.10;84.20;;;;;;4882788;29;20044;-88
2021/03/06 03:07:35;;;;;;;15.38;4.97;;;-5.10;84.10;;;;;;4882232;29;20052;-87
2021/03/06 03:13:35;;;;;;;12.55;5.07;;;-5.20;83.90;;;;;;4881801;29;20071;-89
2021/03/06 03:19:31;;;;;;;12.63;5.00;;;-5.20;84.10;;;;;;4882660;29;20040;-89
2021/03/06 03:25:22;;;;;;;10.98;5.18;;;-5.20;84.10;;;;;;4882401;29;20028;-89
2021/03/06 03:31:12;;;;;;;13.32;4.72;;;-5.30;84.20;;;;;;4881390;29;20104;-89
2021/03/06 03:37:00;;;;;;;12.27;5.20;;;-5.30;84.00;;;;;;4881922;29;20069;-90
2021/03/06 03:46:51;;;;;;;12.43;4.72;;;-5.30;84.10;;;;;;4881498;29;20056;-90
2021/03/06 03:52:42;;;;;;;10.20;4.47;;;-5.40;84.00;;;;;;4881430;29;20072;-89
2021/03/06 03:58:31;;;;;;;9.80;4.53;;;-5.50;83.80;;;;;;4881359;29;20108;-88
2021/03/06 04:04:25;;;;;;;10.52;4.75;;;-5.50;84.10;;;;;;4880981;29;20085;-88
2021/03/06 04:10:16;;;;;;;13.40;4.65;;;-5.50;84.00;;;;;;4880588;29;20125;-88
2021/03/06 04:16:05;;;;;;;11.10;5.30;;;-5.60;83.90;;;;;;4880595;29;20120;-89
2021/03/06 04:21:53;;;;;;;9.77;4.05;;;-5.60;83.90;;;;;;4880811;29;20103;-89
2021/03/06 04:27:41;;;;;;;13.13;4.80;;;-5.60;83.90;;;;;;4880786;29;20056;-90
2021/03/06 04:33:29;;;;;;;10.95;4.57;;;-5.60;84.00;;;;;;4880845;29;20040;-91
2021/03/06 04:39:17;;;;;;;12.23;4.85;;;-5.70;83.90;;;;;;4881077;29;20116;-91
2021/03/06 04:49:08;;;;;;;12.68;4.82;;;-5.80;83.70;;;;;;4880340;29;20043;-88
2021/03/06 04:54:56;;;;;;;10.75;4.45;;;-5.80;84.00;;;;;;4883380;29;20043;-88
2021/03/06 05:00:44;;;;;;;10.63;4.55;;;-5.80;84.00;;;;;;4884216;29;20088;-88
2021/03/06 05:06:33;;;;;;;12.30;3.92;;;-5.80;84.00;;;;;;4884259;29;20110;-90
2021/03/06 05:12:21;;;;;;;10.98;4.40;;;-5.80;83.90;;;;;;4884307;29;20494;-90
2021/03/06 05:18:09;;;;;;;11.40;4.60;;;-5.90;83.80;;;;;;4884374;29;20064;-90
2021/03/06 05:23:57;;;;;;;11.95;4.30;;;-5.90;83.70;;;;;;4883865;29;20040;-88
2021/03/06 05:29:47;;;;;;;10.48;4.75;;;-5.90;83.80;;;;;;4886785;29;20064;-90
2021/03/06 05:35:35;;;;;;;13.13;4.40;;;-6.00;83.70;;;;;;4884211;29;20036;-89
2021/03/06 05:41:24;;;;;;;10.30;3.97;;;-6.00;83.80;;;;;;4885384;29;20505;-89
2021/03/06 05:51:07;;;;;;;8.38;3.70;;;-6.00;83.80;;;;;;4884370;29;20101;-90
2021/03/06 05:56:56;;;;;;;8.13;3.42;;;-6.10;83.80;;;;;;4883440;29;20040;-88
2021/03/06 06:02:45;;;;;;;14.90;5.03;;;-6.00;84.10;;;;;;4882983;29;20077;-88
2021/03/06 06:08:34;;;;;;;11.15;4.03;;;-6.00;84.00;;;;;;4883561;29;20033;-90
2021/03/06 06:14:23;;;;;;;12.55;4.80;;;-6.00;84.20;;;;;;4883111;29;20040;-91
2021/03/06 06:20:16;;;;;;;11.48;4.28;;;-5.80;84.70;;;;;;4882654;29;20028;-92
2021/03/06 06:26:11;;;;;;;9.27;4.07;;;-5.70;84.70;;;;;;4882038;29;20064;-85
2021/03/06 06:32:00;;;;;;;11.13;4.35;;;-5.50;84.80;;;;;;4882275;29;20484;-84
2021/03/06 06:37:55;;;;;;;10.68;4.47;;;-5.40;85.10;;;;;;4881815;29;20393;-86
2021/03/06 06:43:44;;;;;;;9.35;3.58;;;-5.20;85.00;;;;;;4881873;29;20032;-84
2021/03/06 06:53:33;;;;;;;6.22;2.85;;;-5.10;84.70;;;;;;4881876;29;20072;-81
2021/03/06 06:59:22;;;;;;;9.07;3.55;;;-5.00;85.00;;;;;;4881629;29;20044;-83
2021/03/06 07:05:10;;;;;;;8.50;3.63;;;-4.90;85.00;;;;;;4881488;29;20029;-83
2021/03/06 07:10:59;;;;;;;11.77;4.05;;;-4.80;85.20;;;;;;4881513;29;20081;-83
2021/03/06 07:17:02;;;;;;;9.70;3.70;;;-4.60;85.30;;;;;;4880726;29;20169;-83
2021/03/06 07:22:58;;;;;;;11.93;4.57;;;-4.40;85.30;;;;;;4881576;29;20043;-82
2021/03/06 07:28:50;;;;;;;7.63;3.58;;;-4.30;85.30;;;;;;4881083;29;20028;-82
2021/03/06 07:34:37;;;;;;;9.82;3.97;;;-4.10;85.60;;;;;;4881315;29;20043;-82
2021/03/06 07:40:30;;;;;;;8.70;4.10;;;-3.90;85.90;;;;;;4881134;29;20032;-86
2021/03/06 07:46:19;;;;;;;10.68;4.13;;;-3.60;85.90;;;;;;4880602;29;20410;-85
2021/03/06 07:48:51;;;;;;;10.90;4.15;;;-3.50;86.00;;;;;;4814155;29;20444;-87
2021/03/06 07:54:40;;;;;;;9.70;3.97;;;-3.30;86.10;;;;;;4862774;29;20053;-87
2021/03/06 08:00:48;;;;;;;8.13;4.22;;;-3.10;86.40;;;;;;4862399;29;20132;-88
2021/03/06 08:06:37;;;;;;;10.80;5.05;;;-2.80;86.60;;;;;;4861823;29;20056;-87
2021/03/06 08:12:33;;;;;;;8.57;4.10;;;-2.60;86.50;;;;;;4861910;29;20078;-87
2021/03/06 08:18:32;;;;;;;9.07;3.80;;;-2.30;86.70;;;;;;4861888;29;20153;-87
2021/03/06 08:24:23;;;;;;;8.75;3.67;;;-2.00;86.80;;;;;;4861842;29;20197;-87
2021/03/06 08:30:27;;;;;;;11.88;4.88;;;-1.80;86.70;;;;;;4861906;29;20059;-87
2021/03/06 08:36:25;;;;;;;10.85;4.38;;;-1.60;86.60;;;;;;4861467;29;20521;-87
2021/03/06 08:42:16;;;;;;;10.45;3.83;;;-1.30;87.20;;;;;;4861725;29;20044;-87
2021/03/06 08:48:05;;;;;;;10.30;4.30;;;-1.10;87.30;;;;;;4861854;29;20060;-86
2021/03/06 08:54:00;;;;;;;10.65;4.30;;;-0.80;87.00;;;;;;4862401;29;20440;-90
2021/03/06 08:59:49;;;;;;;8.82;3.55;;;-0.60;87.20;;;;;;4862224;29;20053;-91
2021/03/06 09:05:37;;;;;;;10.60;3.83;;;-0.40;87.80;;;;;;4861521;29;20451;-85
2021/03/06 09:11:25;;;;;;;8.52;3.72;;;0.00;87.60;;;;;;4861363;29;20036;-84
2021/03/06 09:17:14;;;;;;;8.63;3.58;;;0.20;87.70;;;;;;4861350;29;20481;-84
2021/03/06 09:23:02;;;;;;;11.60;3.25;;;0.50;87.60;;;;;;4861320;29;20037;-84
2021/03/06 09:28:53;;;;;;;10.57;4.03;;;0.80;87.70;;;;;;4861084;29;20073;-84
2021/03/06 09:34:42;;;;;;;8.18;3.30;;;1.10;87.90;;;;;;4861453;29;20049;-84
2021/03/06 09:40:37;;;;;;;9.27;3.42;;;1.30;88.10;;;;;;4864221;29;20039;-85
2021/03/06 09:46:31;;;;;;;7.90;2.97;;;1.80;89.90;;;;;;4864254;29;20133;-84
2021/03/06 09:56:14;;;;;;;7.18;3.10;;;2.60;89.10;;;;;;4864328;29;20094;-84
2021/03/06 10:02:13;;;;;;;7.00;2.85;;;2.90;88.50;;;;;;4863996;29;20113;-85
2021/03/06 10:08:01;;;;;;;5.53;2.30;;;3.30;89.50;;;;;;4863957;29;20059;-86
2021/03/06 10:13:52;;;;;;;7.15;2.70;;;3.80;89.30;;;;;;4863979;29;20085;-86
2021/03/06 10:19:50;;;;;;;5.43;2.33;;;4.40;89.80;;;;;;4863779;29;20041;-89
2021/03/06 10:25:39;;;;;;;5.32;2.30;;;5.00;89.70;;;;;;4874415;29;20455;-90
2021/03/06 10:31:29;;;;;;;4.88;2.20;;;5.80;90.40;;;;;;4863729;29;20036;-88
2021/03/06 10:37:19;;;;;;;3.40;2.10;;;6.70;91.10;;;;;;4863899;29;20124;-88
2021/03/06 10:43:07;;;;;;;2.95;1.90;;;8.00;91.90;;;;;;4863607;29;20040;-86
2021/03/06 10:49:00;;;;;;;3.65;2.10;;;9.40;92.60;;;;;;4863257;29;20398;-87
2021/03/06 10:58:50;;;;;;;4.47;2.35;;;11.10;92.60;;;;;;4863170;29;20204;-86
2021/03/06 11:04:39;;;;;;;4.63;2.33;;;11.80;92.20;;;;;;4862915;29;20037;-86
2021/03/06 11:10:27;;;;;;;4.75;2.30;;;12.30;91.10;;;;;;4863064;29;20097;-87
2021/03/06 11:16:34;;;;;;;4.13;2.30;;;13.00;92.00;;;;;;4863059;29;20036;-87
2021/03/06 11:22:04;;;;;;;4.00;2.20;;;13.70;91.80;;;;;;4862949;29;19914;-89
2021/03/06 11:27:58;;;;;;;3.72;2.17;;;14.30;92.10;;;;;;4865043;29;20052;-90
2021/03/06 11:33:46;;;;;;;4.57;2.40;;;15.10;92.00;;;;;;4866092;29;20078;-90
2021/03/06 11:39:36;;;;;;;5.53;2.80;;;15.60;90.70;;;;;;4868180;29;20036;-90
2021/03/06 11:45:25;;;;;;;5.18;2.55;;;15.80;91.10;;;;;;4863060;29;20125;-90
2021/03/06 11:51:13;;;;;;;4.45;2.30;;;16.70;91.50;;;;;;4862954;29;20073;-91
2021/03/06 12:01:03;;;;;;;3.53;2.05;;;17.20;90.50;;;;;;4862908;29;20041;-89
2021/03/06 12:06:52;;;;;;;4.53;2.40;;;17.10;90.20;;;;;;4861901;29;20101;-88
2021/03/06 12:12:43;;;;;;;4.85;2.42;;;17.80;90.60;;;;;;4862157;29;20399;-89
2021/03/06 12:18:32;;;;;;;5.45;2.38;;;18.20;90.30;;;;;;4862162;29;20036;-90
2021/03/06 12:24:20;;;;;;;5.25;2.60;;;18.40;90.20;;;;;;4862699;29;20052;-89
2021/03/06 12:30:11;;;;;;;4.05;2.42;;;18.10;87.60;;;;;;4861723;29;20044;-88
2021/03/06 12:35:58;;;;;;;4.72;2.38;;;18.60;90.00;;;;;;4861990;29;20056;-88
2021/03/06 12:41:49;;;;;;;3.45;2.17;;;19.00;88.80;;;;;;4862213;29;20150;-90
2021/03/06 12:47:38;;;;;;;5.00;2.33;;;19.00;88.40;;;;;;4862648;29;20458;-90
2021/03/06 12:53:26;;;;;;;4.28;2.05;;;19.10;88.40;;;;;;4867924;29;20029;-91
2021/03/06 13:03:09;;;;;;;4.10;2.05;;;19.60;88.50;;;;;;4861725;29;20522;-88
2021/03/06 13:08:58;;;;;;;3.15;1.90;;;19.80;87.20;;;;;;4861389;29;20394;-89
2021/03/06 13:14:46;;;;;;;5.07;2.75;;;19.60;86.90;;;;;;4862617;29;20040;-89
2021/03/06 13:20:35;;;;;;;3.95;2.17;;;20.00;88.30;;;;;;4865210;29;20036;-89
2021/03/06 13:26:24;;;;;;;46.25;28.75;;;19.90;87.50;;;;;;4865305;29;20206;-88
2021/03/06 13:32:12;;;;;;;5.60;2.65;;;20.40;88.40;;;;;;4873782;29;20108;-92
2021/03/06 13:38:01;;;;;;;4.95;2.42;;;20.40;86.80;;;;;;4866138;29;20036;-89
2021/03/06 13:43:49;;;;;;;4.80;2.40;;;20.30;87.70;;;;;;4864743;29;20060;-88
2021/03/06 13:49:38;;;;;;;4.45;2.50;;;20.60;86.10;;;;;;4866311;29;20082;-94
2021/03/06 13:55:26;;;;;;;7.22;3.33;;;20.30;83.10;;;;;;4864538;29;20061;-89
2021/03/06 14:05:08;;;;;;;10.30;4.15;;;20.70;85.50;;;;;;4882900;29;20048;-92
2021/03/06 14:10:56;;;;;;;5.82;3.05;;;20.40;83.90;;;;;;4883653;29;20043;-93
2021/03/06 14:16:47;;;;;;;7.10;2.40;;;20.50;84.70;;;;;;4883796;29;20081;-93
2021/03/06 14:22:36;;;;;;;3.50;2.22;;;20.60;84.10;;;;;;4882626;29;20036;-89
2021/03/06 14:28:26;;;;;;;5.82;2.58;;;20.80;84.50;;;;;;4883057;29;20088;-92
2021/03/06 14:34:14;;;;;;;3.95;2.05;;;21.20;82.80;;;;;;4883307;29;20436;-91
2021/03/06 14:40:03;;;;;;;5.47;2.58;;;21.50;82.60;;;;;;4882457;29;20028;-93
2021/03/06 14:45:52;;;;;;;3.00;1.80;;;21.30;81.90;;;;;;4881937;29;20056;-88
2021/03/06 14:51:41;;;;;;;4.95;2.30;;;21.00;82.80;;;;;;4882056;29;20509;-89
2021/03/06 14:57:29;;;;;;;4.75;2.20;;;20.90;83.00;;;;;;4881887;29;20093;-88
2021/03/06 15:07:12;;;;;;;6.40;2.88;;;20.90;79.80;;;;;;4881538;29;20059;-88
2021/03/06 15:13:00;;;;;;;3.83;2.20;;;20.80;80.40;;;;;;4881502;29;20120;-88
2021/03/06 15:18:49;;;;;;;5.38;2.40;;;20.90;79.50;;;;;;4883412;29;20386;-88
2021/03/06 15:24:37;;;;;;;6.57;3.00;;;20.40;79.40;;;;;;4881570;29;20100;-88
2021/03/06 15:30:27;;;;;;;5.07;2.20;;;20.40;80.90;;;;;;4881030;29;20032;-88
2021/03/06 15:36:15;;;;;;;4.72;2.00;;;20.30;80.30;;;;;;4881358;29;20047;-88
2021/03/06 15:42:04;;;;;;;4.32;2.30;;;20.20;80.20;;;;;;4880675;29;20398;-88
2021/03/06 15:47:52;;;;;;;5.68;2.40;;;20.00;78.30;;;;;;4880655;29;20119;-85
2021/03/06 15:53:41;;;;;;;4.45;2.10;;;19.40;76.50;;;;;;4880783;29;20047;-85
2021/03/06 15:59:29;;;;;;;5.72;2.50;;;19.10;79.50;;;;;;4880560;29;20442;-86
2021/03/06 16:09:12;;;;;;;4.78;2.40;;;19.00;77.90;;;;;;4880661;29;20096;-86
2021/03/06 16:15:00;;;;;;;3.83;2.08;;;18.60;77.40;;;;;;4880346;29;20062;-84
2021/03/06 16:20:49;;;;;;;9.40;4.65;;;17.90;77.70;;;;;;4880413;29;20040;-90
2021/03/06 16:26:38;;;;;;;9.35;4.50;;;16.40;74.70;;;;;;4880112;29;20099;-87
2021/03/06 16:32:27;;;;;;;5.57;2.50;;;14.50;75.20;;;;;;4880330;29;20062;-87
2021/03/06 16:38:17;;;;;;;6.95;3.10;;;13.50;77.30;;;;;;4880265;29;20056;-84
2021/03/06 16:44:06;;;;;;;10.38;4.95;;;12.60;78.10;;;;;;4880031;29;20413;-85
2021/03/06 16:49:55;;;;;;;10.25;4.90;;;11.80;78.20;;;;;;4881742;29;20052;-85
2021/03/06 16:55:44;;;;;;;7.95;3.70;;;11.00;78.90;;;;;;4884061;29;20073;-85
2021/03/06 17:01:35;;;;;;;10.18;3.67;;;10.30;78.60;;;;;;4883865;29;20040;-85
2021/03/06 17:11:19;;;;;;;9.55;4.20;;;9.30;79.30;;;;;;4884067;29;20048;-85
2021/03/06 17:17:07;;;;;;;11.02;4.85;;;8.80;79.80;;;;;;4883714;29;20040;-84
2021/03/06 17:22:56;;;;;;;10.07;4.03;;;8.10;79.10;;;;;;4883476;29;20055;-85
2021/03/06 17:28:44;;;;;;;8.13;3.58;;;7.60;79.70;;;;;;4883376;29;20160;-85
2021/03/06 17:34:32;;;;;;;8.73;3.58;;;7.20;80.20;;;;;;4883235;29;20040;-85
2021/03/06 17:40:21;;;;;;;6.47;2.85;;;6.80;79.80;;;;;;4883570;29;20044;-87
2021/03/06 17:46:09;;;;;;;8.60;3.88;;;6.40;80.00;;;;;;4885277;29;20064;-88
2021/03/06 17:51:58;;;;;;;6.38;2.78;;;6.00;80.20;;;;;;4883137;29;20052;-89
2021/03/06 17:57:47;;;;;;;10.02;4.00;;;5.70;80.70;;;;;;4882654;29;20111;-87
2021/03/06 18:03:36;;;;;;;7.22;3.40;;;5.40;80.50;;;;;;4882864;29;20040;-88
2021/03/06 18:13:19;;;;;;;9.38;3.78;;;4.90;80.90;;;;;;4882745;29;20146;-88
2021/03/06 18:19:08;;;;;;;9.68;4.22;;;4.50;80.30;;;;;;4882379;29;20064;-88
2021/03/06 18:24:56;;;;;;;15.18;6.57;;;4.20;80.80;;;;;;4882359;29;20032;-87
2021/03/06 18:30:45;;;;;;;15.63;5.68;;;4.00;80.60;;;;;;4882329;29;20083;-87
2021/03/06 18:36:33;;;;;;;15.60;5.57;;;3.70;80.90;;;;;;4882340;29;20469;-88
2021/03/06 18:42:22;;;;;;;13.77;6.53;;;3.40;81.00;;;;;;4881955;29;20059;-88
2021/03/06 18:48:11;;;;;;;14.40;5.03;;;3.30;81.50;;;;;;4882091;29;20079;-88
2021/03/06 18:54:00;;;;;;;9.90;4.50;;;3.10;81.30;;;;;;4881963;29;20088;-88
2021/03/06 18:59:48;;;;;;;10.32;4.53;;;2.90;81.50;;;;;;4881966;29;20533;-88
2021/03/06 19:05:37;;;;;;;14.75;5.63;;;2.70;81.30;;;;;;4887273;29;20549;-89
2021/03/06 19:15:19;;;;;;;10.80;4.88;;;2.30;81.10;;;;;;4882276;29;20394;-91
2021/03/06 19:21:08;;;;;;;14.18;4.60;;;2.10;81.40;;;;;;4882063;29;20052;-91
2021/03/06 19:26:57;;;;;;;10.82;4.90;;;1.90;81.40;;;;;;4881545;29;20512;-88
2021/03/06 19:32:47;;;;;;;11.55;5.53;;;1.70;81.20;;;;;;4882870;29;20028;-91
2021/03/06 19:38:35;;;;;;;11.65;4.57;;;1.50;81.40;;;;;;4881834;29;20058;-89
2021/03/06 19:44:24;;;;;;;10.25;4.22;;;1.30;81.40;;;;;;4882049;29;20108;-90
2021/03/06 19:50:14;;;;;;;9.90;4.70;;;1.10;81.40;;;;;;4881191;29;20031;-88
2021/03/06 19:56:02;;;;;;;12.15;4.90;;;1.00;81.40;;;;;;4881325;29;20079;-90
2021/03/06 20:01:52;;;;;;;11.75;4.50;;;0.80;81.50;;;;;;4881438;29;20089;-90
2021/03/06 20:07:41;;;;;;;9.43;5.00;;;0.70;81.60;;;;;;4883766;29;20048;-93
2021/03/06 20:17:25;;;;;;;13.95;5.95;;;0.40;81.50;;;;;;4883549;29;20529;-91
2021/03/06 20:23:14;;;;;;;14.50;5.38;;;0.20;81.40;;;;;;4880290;29;20077;-90
2021/03/06 20:29:03;;;;;;;13.95;5.93;;;0.10;81.50;;;;;;4880982;29;20414;-89
2021/03/06 20:34:52;;;;;;;16.17;5.80;;;0.00;82.50;;;;;;4881580;29;20048;-93
2021/03/06 20:40:40;;;;;;;13.45;6.00;;;0.00;81.90;;;;;;4881064;29;20028;-92
2021/03/06 20:46:28;;;;;;;13.10;5.88;;;-0.20;81.50;;;;;;4881313;29;20052;-89
2021/03/06 20:52:17;;;;;;;16.15;7.30;;;-0.40;81.40;;;;;;4881871;29;20036;-95
2021/03/06 20:58:05;;;;;;;14.43;6.25;;;-0.60;81.40;;;;;;4881665;29;20558;-93
2021/03/06 21:03:54;;;;;;;16.15;6.25;;;-0.80;81.20;;;;;;4881549;29;20040;-93
2021/03/06 21:09:42;;;;;;;16.52;6.43;;;-0.90;81.50;;;;;;4884246;29;20036;-91
2021/03/06 21:19:26;;;;;;;15.43;6.45;;;-1.10;81.60;;;;;;4881053;29;20093;-91
2021/03/06 21:25:16;;;;;;;16.38;6.30;;;-1.20;81.50;;;;;;4880457;29;20125;-91
2021/03/06 21:31:04;;;;;;;14.98;6.65;;;-1.40;81.50;;;;;;4880282;29;20036;-90
2021/03/06 21:36:52;;;;;;;17.95;6.57;;;-1.50;81.70;;;;;;4883231;29;20040;-90
2021/03/06 21:42:41;;;;;;;17.08;7.57;;;-1.60;81.70;;;;;;4883975;29;20055;-90
2021/03/06 21:48:29;;;;;;;14.52;5.53;;;-1.70;81.60;;;;;;4883871;29;20173;-90
2021/03/06 21:54:18;;;;;;;15.55;7.07;;;-1.80;81.70;;;;;;4883762;29;20438;-91
2021/03/06 22:00:07;;;;;;;13.85;6.40;;;-1.90;81.60;;;;;;4884252;29;20073;-91
2021/03/06 22:05:56;;;;;;;17.83;6.78;;;-2.10;81.50;;;;;;4883922;29;20071;-91
2021/03/06 22:11:44;;;;;;;18.33;7.03;;;-2.20;81.50;;;;;;4886060;29;20048;-89
2021/03/06 22:21:26;;;;;;;17.10;6.82;;;-2.30;81.60;;;;;;4884136;29;20195;-89
2021/03/06 22:27:15;;;;;;;12.52;5.97;;;-2.40;81.70;;;;;;4883181;29;20116;-90
2021/03/06 22:33:04;;;;;;;14.48;6.15;;;-2.50;81.80;;;;;;4885250;29;20093;-88
2021/03/06 22:38:52;;;;;;;14.30;5.90;;;-2.60;81.80;;;;;;4889246;29;20028;-90
2021/03/06 22:44:41;;;;;;;14.88;6.25;;;-2.60;82.00;;;;;;4884998;29;20386;-91
2021/03/06 22:50:29;;;;;;;18.77;6.55;;;-2.70;81.90;;;;;;4882350;29;20044;-89
2021/03/06 22:56:18;;;;;;;13.02;6.55;;;-2.70;81.90;;;;;;4882362;29;20057;-89
2021/03/06 23:02:06;;;;;;;14.88;7.05;;;-2.80;81.80;;;;;;4882114;29;20092;-89
2021/03/06 23:07:55;;;;;;;13.30;5.97;;;-2.90;81.80;;;;;;4881885;29;20091;-88
2021/03/06 23:13:44;;;;;;;14.43;5.65;;;-3.00;81.90;;;;;;4882557;29;20075;-94
2021/03/06 23:23:27;;;;;;;15.30;6.25;;;-3.10;82.00;;;;;;4883395;29;20493;-92
2021/03/06 23:29:18;;;;;;;15.05;6.57;;;-3.10;81.90;;;;;;4902842;29;20058;-88
2021/03/06 23:35:08;;;;;;;13.48;6.75;;;-3.30;82.00;;;;;;4884722;29;20101;-96
2021/03/06 23:40:58;;;;;;;13.80;6.35;;;-3.30;82.00;;;;;;4882819;29;20048;-95
2021/03/06 23:46:47;;;;;;;13.10;5.97;;;-3.40;82.00;;;;;;4882143;29;20056;-94
2021/03/06 23:52:36;;;;;;;15.77;7.22;;;-3.40;82.00;;;;;;4882451;29;20044;-88
2021/03/06 23:58:25;;;;;;;15.02;6.30;;;-3.50;82.10;;;;;;4880473;29;20100;-91
